^^

Aktuelle METAR Wetterberichte, (Flughäfen)

 

EDLN - Monchengladbach, Germany
Entfernung: OSO 11km
aktuell: 23/09/2017 08:50
dunstig, Überwiegend bewölkt
dunstig, Überwiegend bewölkt
 Wind von varies
Wind: varies 4 km/h
Temperatur: 12°C
Taupunkt: 12°C
Luftfeuchte: 100%
Luftdruck: 1024 hPa
Zusammenfassung: dunstig
Wolken: Überwiegend bewölkt
Sichtweite: 3 km
Wolken im Detail: Überwiegend bewölkt 183 m
2017/09/23 06:50 EDLN 230650Z VRB02KT 2800 BR BKN006 12/12 Q1024
EDDL - Duesseldorf, Germany
Entfernung: O 28km
aktuell: 23/09/2017 09:20
dunstig, Überwiegend bewölkt
dunstig, Überwiegend bewölkt
 Wind von NNW
Wind: NNW 6 km/h
Temperatur: 14°C
Taupunkt: 12°C
Luftfeuchte: 88%
Luftdruck: 1024 hPa
Zusammenfassung: dunstig
Wolken: Überwiegend bewölkt
Sichtweite: 3 km
Wolken im Detail: Teilweise bewölkt 213 m
Überwiegend bewölkt 610 m
2017/09/23 07:20 EDDL 230720Z 33003KT 300V360 3300 BR SCT007 BKN020 14/12 Q1024 BECMG 7000 BKN007
 
EDLV - Niederrhein, Germany
Entfernung: NNW 38km
aktuell: 23/09/2017 08:50
dunstig, Geschlossene Wolkendecke
dunstig, Geschlossene Wolkendecke
 Wind von calm
Wind: Windstill
Temperatur: 11°C
Taupunkt: 11°C
Luftfeuchte: 100%
Luftdruck: 1025 hPa
Zusammenfassung: dunstig
Wolken: Geschlossene Wolkendecke
Sichtweite: 1 km
Wolken im Detail: Geschlossene Wolkendecke 61 m
2017/09/23 06:50 EDLV 230650Z 00000KT 1200 R27/1300VP2000U BR OVC002 11/11 Q1025
ETNN - Noervenich (gaf), Germany
Entfernung: SSO 56km
aktuell: 23/09/2017 08:44
Nebel, Geschlossene Wolkendecke
Nebel, Geschlossene Wolkendecke
 Wind von NNW
Wind: NNW 7 km/h
Temperatur: 12°C
Taupunkt: 11°C
Luftfeuchte: 94%
Luftdruck: 1024 hPa
Zusammenfassung: Nebel
Wolken: Geschlossene Wolkendecke
Sichtweite: 1 km
Wolken im Detail: Geschlossene Wolkendecke 30 m
2017/09/23 06:44 ETNN 230644Z 33004KT 0900 FG VV001 12/11 Q1024 RED
 
EHBK - Zuid-Limburg/Bee, Netherlands
Entfernung: SW 59km
aktuell: 23/09/2017 08:55
Nebel, Geschlossene Wolkendecke
Nebel, Geschlossene Wolkendecke
 Wind von varies
Wind: varies 4 km/h
Temperatur: 11°C
Taupunkt: 11°C
Luftfeuchte: 100%
Luftdruck: 1024 hPa
Zusammenfassung: Nebel
Wolken: Geschlossene Wolkendecke
Sichtweite: 0 km
Wolken im Detail: Geschlossene Wolkendecke 0 m
2017/09/23 06:55 EHBK 230655Z AUTO VRB02KT 0250 R03/0600N FG VV000 11/11 Q1024 TEMPO 2000 BR BKN003
EHVK - Volkel Rnlafb, Netherlands
Entfernung: NW 61km
aktuell: 23/09/2017 08:55
Nebel, Geschlossene Wolkendecke
Nebel, Geschlossene Wolkendecke
 Wind von varies
Wind: varies 4 km/h
Temperatur: 7°C
Taupunkt: 7°C
Luftfeuchte: 100%
Luftdruck: 1024 hPa
Zusammenfassung: Nebel
Wolken: Geschlossene Wolkendecke
Sichtweite: 0 km
Wolken im Detail: Geschlossene Wolkendecke 0 m
2017/09/23 06:55 EHVK 230655Z AUTO VRB02KT 0100 R24R/0050N FG OVC000 07/07 Q1024 RED
 
EBBL - Kleine-Brogel(Ba, Belgium
Entfernung: WSW 64km
aktuell: 23/09/2017 08:55
Nebel, Geschlossene Wolkendecke
Nebel, Geschlossene Wolkendecke
 Wind von calm
Wind: Windstill
Temperatur: 9°C
Taupunkt: 9°C
Luftfeuchte: 100%
Luftdruck: 1025 hPa
Zusammenfassung: Nebel
Wolken: Geschlossene Wolkendecke
Sichtweite: 0 km
Wolken im Detail: Geschlossene Wolkendecke 61 m
2017/09/23 06:55 EBBL 230655Z AUTO 00000KT 0100 FG VV002/// 09/09 Q1025 RED
EHEH - Eindhoven Rnlafb, Netherlands
Entfernung: WNW 69km
aktuell: 23/09/2017 09:14
dunstig, Überwiegend bewölkt
dunstig, Überwiegend bewölkt
 Wind von varies
Wind: varies 2 km/h
Temperatur: 9°C
Taupunkt: 9°C
Luftfeuchte: 100%
Luftdruck: 1024 hPa
Zusammenfassung: dunstig
Wolken: Überwiegend bewölkt
Sichtweite: 4 km
Wolken im Detail: Teilweise bewölkt 3353 m
Überwiegend bewölkt 4877 m
2017/09/23 07:14 EHEH 230714Z AUTO VRB01KT 4100 BR SCT110 BKN160 09/09 Q1024 GRN VRB02KT 1500 BR NSC BECMG 3000 SCT002 SCT150
 
EDDK - Koeln/Bonn, Germany
Entfernung: SO 72km
aktuell: 23/09/2017 09:20
dunstig, Überwiegend bewölkt
dunstig, Überwiegend bewölkt
 Wind von NNW
Wind: NNW 6 km/h
Temperatur: 13°C
Taupunkt: 13°C
Luftfeuchte: 100%
Luftdruck: 1024 hPa
Zusammenfassung: dunstig
Wolken: Überwiegend bewölkt
Sichtweite: 3 km
Wolken im Detail: Einige Wolken 91 m
Überwiegend bewölkt 122 m
2017/09/23 07:20 EDDK 230720Z 33003KT 300V010 2800 BR FEW003 BKN004 13/13 Q1024 BECMG 4000 BKN007
EDLW - Dortmund/Wickede, Germany
Entfernung: ONO 90km
aktuell: 23/09/2017 08:50
Nebel, Geschlossene Wolkendecke
Nebel, Geschlossene Wolkendecke
 Wind von NW
Wind: NW 7 km/h
Temperatur: 12°C
Taupunkt: 11°C
Luftfeuchte: 94%
Luftdruck: 1023 hPa
Zusammenfassung: Nebel
Wolken: Geschlossene Wolkendecke
Sichtweite: 1 km
Wolken im Detail: Geschlossene Wolkendecke 61 m
2017/09/23 06:50 EDLW 230650Z 31004KT 0900 R06/1300VP2000N FG OVC002 12/11 Q1023
 
EBLB - Elsenborn (mil), Belgium
Entfernung: S 92km
aktuell: 23/09/2017 08:55
Nebel, Geschlossene Wolkendecke
Nebel, Geschlossene Wolkendecke
 Wind von varies
Wind: varies 2 km/h
Temperatur: 7°C
Taupunkt: 7°C
Luftfeuchte: 100%
Luftdruck: 1024 hPa
Zusammenfassung: Nebel
Wolken: Geschlossene Wolkendecke
Sichtweite: 0 km
Wolken im Detail: Geschlossene Wolkendecke 30 m
2017/09/23 06:55 EBLB 230655Z AUTO VRB01KT 0100 FG VV001/// 07/07 Q1024 RED
EHDL - Deelen Rnlafb, Netherlands
Entfernung: NNW 94km
aktuell: 23/09/2017 08:55
Nebel, Teilweise bewölkt
Nebel, Teilweise bewölkt
 Wind von SO
Wind: SO 2 km/h
Temperatur: 8°C
Taupunkt: 8°C
Luftfeuchte: 100%
Luftdruck: 1024 hPa
Zusammenfassung: Nebel
Wolken: Teilweise bewölkt
Sichtweite: 0 km
Wolken im Detail: Teilweise bewölkt 0 m
2017/09/23 06:55 EHDL 230655Z AUTO 13001KT 0300 R20/P3000N FG SCT000 08/08 Q1024 RED
 
EBDT - Schaffen, Belgium
Entfernung: WSW 96km
aktuell: 23/09/2017 08:55
Nebel, Geschlossene Wolkendecke
Nebel, Geschlossene Wolkendecke
 Wind von varies
Wind: varies 2 km/h
Temperatur: 6°C
Taupunkt: 6°C
Luftfeuchte: 100%
Luftdruck: 1025 hPa
Zusammenfassung: Nebel
Wolken: Geschlossene Wolkendecke
Sichtweite: 0 km
Wolken im Detail: Geschlossene Wolkendecke 61 m
2017/09/23 06:55 EBDT 230655Z AUTO VRB01KT 0200 FG VV002/// 06/06 Q1025 RED
EBLG - Bierset/Liege (c, Belgium
Entfernung: SW 97km
aktuell: 23/09/2017 08:50
dunstig, Überwiegend bewölkt
dunstig, Überwiegend bewölkt
 Wind von ONO
Wind: ONO 6 km/h
Temperatur: 11°C
Taupunkt: 10°C
Luftfeuchte: 94%
Luftdruck: 1024 hPa
Zusammenfassung: dunstig
Wolken: Überwiegend bewölkt
Sichtweite: 1 km
Wolken im Detail: Teilweise bewölkt 61 m
Überwiegend bewölkt 122 m
2017/09/23 06:50 EBLG 230650Z 06003KT 030V100 1100 R22L/1700N R22R/1800N R04R/1200N BR SCT002 BKN004 11/10 Q1024 TEMPO 0400 FG BKN001
 
EHGR - Gilze-Rijen Rnla, Netherlands
Entfernung: WNW 106km
aktuell: 23/09/2017 09:14
dunstig, klar
dunstig, klar
 Wind von varies
Wind: varies 2 km/h
Temperatur: 8°C
Taupunkt: 8°C
Luftfeuchte: 100%
Luftdruck: 1024 hPa
Zusammenfassung: dunstig
Wolken: klar
Sichtweite: 2 km
2017/09/23 07:14 EHGR 230714Z AUTO VRB01KT 2300 BR NCD 08/08 Q1024 YLO
EBBE - Beauvechain (baf, Belgium
Entfernung: WSW 127km
aktuell: 23/09/2017 08:55
Nebel, Geschlossene Wolkendecke
Nebel, Geschlossene Wolkendecke
 Wind von O
Wind: O 6 km/h
Temperatur: 9°C
Taupunkt: 8°C
Luftfeuchte: 94%
Luftdruck: 1024 hPa
Zusammenfassung: Nebel
Wolken: Geschlossene Wolkendecke
Sichtweite: 0 km
Wolken im Detail: Geschlossene Wolkendecke 0 m
2017/09/23 06:55 EBBE 230655Z AUTO 10003KT 0350 FG VV000/// 09/08 Q1024 RED
 
EDDG - Muenster/Osnabru, Germany
Entfernung: NO 130km
aktuell: 23/09/2017 09:20
dunstig, Überwiegend bewölkt
dunstig, Überwiegend bewölkt
 Wind von N
Wind: N 7 km/h
Temperatur: 12°C
Taupunkt: 12°C
Luftfeuchte: 100%
Luftdruck: 1024 hPa
Zusammenfassung: dunstig
Wolken: Überwiegend bewölkt
Sichtweite: 3 km
Wolken im Detail: Überwiegend bewölkt 91 m
2017/09/23 07:20 EDDG 230720Z 35004KT 310V030 3000 BR BKN003 12/12 Q1024 BECMG 6000 BKN006
ETHE - Rheine/Bentlage, Germany
Entfernung: NNO 130km
aktuell: 23/09/2017 08:20

 Wind von W
Wind: W 6 km/h
Temperatur: 11°C
Taupunkt: 10°C
Luftfeuchte: 94%
Luftdruck: 1024 hPa
2017/09/23 06:20 ETHE 230620Z AUTO 28003KT //// // ////// 11/10 Q1024 ///
 
EBAW - Antwerp/Deurne, Belgium
Entfernung: W 133km
aktuell: 23/09/2017 08:50
Nebel, Einige Wolken
Nebel, Einige Wolken
 Wind von varies
Wind: varies 2 km/h
Temperatur: 7°C
Taupunkt: 6°C
Luftfeuchte: 93%
Luftdruck: 1025 hPa
Zusammenfassung: Nebel
Wolken: Einige Wolken
Sichtweite: 0 km
Wolken im Detail: Einige Wolken 30 m
2017/09/23 06:50 EBAW 230650Z VRB01KT 0250 R11/0325N R29/0450N FG FEW001 07/06 Q1025 BECMG 1800 BR
ETSB - Buechel, Germany
Entfernung: SSO 134km
aktuell: 23/09/2017 08:20

 Wind von NW
Wind: NW 4 km/h
Temperatur: 11°C
Taupunkt: 10°C
Luftfeuchte: 94%
Luftdruck: 1024 hPa
Sichtweite: 4 km
2017/09/23 06:20 ETSB 230620Z AUTO 32002KT 3500 // ////// 11/10 Q1024 ///
 
EDGS - Siegerland, Germany
Entfernung: OSO 136km
aktuell: 23/09/2017 08:50
Leichter Sprühregen, Nebel, Geschlossene Wolkendecke
Leichter Sprühregen, Nebel, Geschlossene Wolkendecke
 Wind von NNW
Wind: NNW 11 km/h
Temperatur: 11°C
Taupunkt: 11°C
Luftfeuchte: 100%
Luftdruck: 1024 hPa
Zusammenfassung: Leichter Sprühregen, Nebel
Wolken: Geschlossene Wolkendecke
Sichtweite: 0 km
Wolken im Detail: Geschlossene Wolkendecke 61 m
2017/09/23 06:50 EDGS 230650Z 33006KT 0300 R31/0750V1200U -DZ FG OVC002 11/11 Q1024
EBBR - Brussels Nationa, Belgium
Entfernung: WSW 138km
aktuell: 23/09/2017 08:50
dunstig, Teilweise bewölkt
dunstig, Teilweise bewölkt
 Wind von calm
Wind: Windstill
Temperatur: 10°C
Taupunkt: 9°C
Luftfeuchte: 94%
Luftdruck: 1024 hPa
Zusammenfassung: dunstig
Wolken: Teilweise bewölkt
Sichtweite: 4 km
2017/09/23 06:50 EBBR 230650Z 00000KT 4000 BR NSC 10/09 Q1024 BECMG 5000 BR
 
EHWO - Woensdrecht Rnla, Netherlands
Entfernung: W 144km
aktuell: 23/09/2017 08:55
klar
klar
 Wind von ONO
Wind: ONO 4 km/h
Temperatur: 7°C
Taupunkt: 6°C
Luftfeuchte: 93%
Luftdruck: 1024 hPa
Wolken: klar
Sichtweite: 10 km
2017/09/23 06:55 EHWO 230655Z AUTO 06002KT 9999 NCD 07/06 Q1024 BLU
ETAD - Spangdahlem (usa, Germany
Entfernung: S 147km
aktuell: 23/09/2017 09:13
dunstig, Einige Wolken
dunstig, Einige Wolken
 Wind von O
Wind: O 6 km/h
Temperatur: 11°C
Taupunkt: 10°C
Luftfeuchte: 94%
Luftdruck: 1023.7 hPa
Zusammenfassung: dunstig
Wolken: Einige Wolken
Sichtweite: 3 km
Wolken im Detail: Einige Wolken 945 m
2017/09/23 07:13 ETAD 230713Z 08003KT 3200 BR FEW031 11/10 A3023 RMK AO2A VIS E 0600 SLP226
 
EHRD - Rotterdam Airpor, Netherlands
Entfernung: WNW 152km
aktuell: 23/09/2017 08:55
dunstig, klar
dunstig, klar
 Wind von SSO
Wind: SSO 4 km/h
Temperatur: 11°C
Taupunkt: 11°C
Luftfeuchte: 100%
Luftdruck: 1024 hPa
Zusammenfassung: dunstig
Wolken: klar
Sichtweite: 5 km
2017/09/23 06:55 EHRD 230655Z AUTO 15002KT 5000 BR NCD 11/11 Q1024 BECMG CAVOK
EHAM - Amsterdam/Schiph, Netherlands
Entfernung: NW 158km
aktuell: 23/09/2017 08:55
Einige Wolken
Einige Wolken
 Wind von OSO
Wind: OSO 4 km/h
Temperatur: 10°C
Taupunkt: 9°C
Luftfeuchte: 94%
Luftdruck: 1024 hPa
Wolken: Einige Wolken
Sichtweite: 10 km
Wolken im Detail: Einige Wolken 366 m
2017/09/23 06:55 EHAM 230655Z 11002KT 9999 FEW012 10/09 Q1024 NOSIG
 
EDLP - Paderborn/Lippst, Germany
Entfernung: ONO 160km
aktuell: 23/09/2017 08:50
dunstig, Überwiegend bewölkt
dunstig, Überwiegend bewölkt
 Wind von varies
Wind: varies 2 km/h
Temperatur: 13°C
Taupunkt: 12°C
Luftfeuchte: 94%
Luftdruck: 1024 hPa
Zusammenfassung: dunstig
Wolken: Überwiegend bewölkt
Sichtweite: 2 km
Wolken im Detail: Teilweise bewölkt 122 m
Überwiegend bewölkt 213 m
2017/09/23 06:50 EDLP 230650Z VRB01KT 1500 BR SCT004 BKN007 13/12 Q1024
EDFH - Hahn, Germany
Entfernung: SSO 161km
aktuell: 23/09/2017 08:50
dunstig, Überwiegend bewölkt
dunstig, Überwiegend bewölkt
 Wind von NNO
Wind: NNO 6 km/h
Temperatur: 11°C
Taupunkt: 11°C
Luftfeuchte: 100%
Luftdruck: 1024 hPa
Zusammenfassung: dunstig
Wolken: Überwiegend bewölkt
Sichtweite: 4 km
Wolken im Detail: Überwiegend bewölkt 152 m
2017/09/23 06:50 EDFH 230650Z 02003KT 320V060 4000 BR BKN005 11/11 Q1024
 
EBCI - Charleroi/Gossel, Belgium
Entfernung: SW 163km
aktuell: 23/09/2017 08:50
dunstig, Teilweise bewölkt
dunstig, Teilweise bewölkt
 Wind von OSO
Wind: OSO 6 km/h
Temperatur: 9°C
Taupunkt: 9°C
Luftfeuchte: 100%
Luftdruck: 1024 hPa
Zusammenfassung: dunstig
Wolken: Teilweise bewölkt
Sichtweite: 3 km
2017/09/23 06:50 EBCI 230650Z 11003KT 080V140 3000 BR NSC 09/09 Q1024 BECMG 5000
EBFS - Florennes (bel-A, Belgium
Entfernung: SW 170km
aktuell: 23/09/2017 08:55
Nebel, Geschlossene Wolkendecke
Nebel, Geschlossene Wolkendecke
 Wind von varies
Wind: varies 0 km/h
Zusammenfassung: Nebel
Wolken: Geschlossene Wolkendecke
Sichtweite: 0 km
Wolken im Detail: Geschlossene Wolkendecke 61 m
2017/09/23 06:55 EBFS 230655Z AUTO //////KT 0250 FG VV002/// 09/// Q1024 RED
 
ETWM - Meppen, Germany
Entfernung: NNO 172km
aktuell: 23/09/2017 08:20

 Wind von varies
Wind: varies 2 km/h
Temperatur: 10°C
Taupunkt: 9°C
Luftfeuchte: 94%
Luftdruck: 1024 hPa
Sichtweite: 6 km
2017/09/23 06:20 ETWM 230620Z AUTO VRB01KT 6000 // ////// 10/09 Q1024 ///